sensor_id;sensor_type;location;lat;lon;timestamp;pressure;altitude;pressure_sealevel;temperature;humidity
7333;BME280;3707;43.618;25.342;2023-09-19T00:01:33;100519.72;;;20.37;96.19
7333;BME280;3707;43.618;25.342;2023-09-19T00:04:01;100523.25;;;20.38;95.61
7333;BME280;3707;43.618;25.342;2023-09-19T00:06:28;100518.84;;;20.40;95.19
7333;BME280;3707;43.618;25.342;2023-09-19T00:08:57;100516.91;;;20.48;94.88
7333;BME280;3707;43.618;25.342;2023-09-19T00:11:25;100482.19;;;20.26;94.94
7333;BME280;3707;43.618;25.342;2023-09-19T00:13:52;100502.16;;;20.38;94.17
7333;BME280;3707;43.618;25.342;2023-09-19T00:16:19;100504.91;;;20.33;94.42
7333;BME280;3707;43.618;25.342;2023-09-19T00:18:46;100501.22;;;20.42;94.22
7333;BME280;3707;43.618;25.342;2023-09-19T00:21:15;100465.50;;;20.24;94.55
7333;BME280;3707;43.618;25.342;2023-09-19T00:23:42;100469.22;;;20.14;94.45
7333;BME280;3707;43.618;25.342;2023-09-19T00:26:09;100501.44;;;20.26;95.17
7333;BME280;3707;43.618;25.342;2023-09-19T00:28:36;100501.56;;;20.20;95.75
7333;BME280;3707;43.618;25.342;2023-09-19T00:31:02;100491.09;;;20.17;95.56
7333;BME280;3707;43.618;25.342;2023-09-19T00:33:30;100475.59;;;20.01;96.09
7333;BME280;3707;43.618;25.342;2023-09-19T00:35:57;100393.94;;;19.55;95.31
7333;BME280;3707;43.618;25.342;2023-09-19T00:38:26;100487.47;;;20.24;95.45
7333;BME280;3707;43.618;25.342;2023-09-19T00:40:54;100475.13;;;20.30;94.57
7333;BME280;3707;43.618;25.342;2023-09-19T00:43:22;100450.84;;;20.09;95.04
7333;BME280;3707;43.618;25.342;2023-09-19T00:45:51;100480.34;;;20.33;94.28
7333;BME280;3707;43.618;25.342;2023-09-19T00:48:19;100478.59;;;20.32;94.23
7333;BME280;3707;43.618;25.342;2023-09-19T00:50:47;100445.59;;;20.09;94.09
7333;BME280;3707;43.618;25.342;2023-09-19T00:53:17;100483.88;;;20.27;94.69
7333;BME280;3707;43.618;25.342;2023-09-19T00:55:46;100469.16;;;20.18;94.44
7333;BME280;3707;43.618;25.342;2023-09-19T00:58:16;100472.66;;;20.19;95.31
7333;BME280;3707;43.618;25.342;2023-09-19T01:00:43;100485.94;;;20.11;95.75
7333;BME280;3707;43.618;25.342;2023-09-19T01:03:11;100470.19;;;20.08;95.29
7333;BME280;3707;43.618;25.342;2023-09-19T01:05:39;100478.00;;;20.14;95.46
7333;BME280;3707;43.618;25.342;2023-09-19T01:08:06;100472.72;;;20.14;95.06
7333;BME280;3707;43.618;25.342;2023-09-19T01:10:33;100456.09;;;20.11;95.60
7333;BME280;3707;43.618;25.342;2023-09-19T01:13:06;100455.91;;;20.21;94.79
7333;BME280;3707;43.618;25.342;2023-09-19T01:15:42;100456.69;;;20.28;94.86
7333;BME280;3707;43.618;25.342;2023-09-19T01:18:19;100457.59;;;20.25;94.52
7333;BME280;3707;43.618;25.342;2023-09-19T01:20:55;100452.66;;;20.07;95.37
7333;BME280;3707;43.618;25.342;2023-09-19T01:23:32;100467.59;;;20.07;96.50
7333;BME280;3707;43.618;25.342;2023-09-19T01:26:24;100457.94;;;20.07;96.52
7333;BME280;3707;43.618;25.342;2023-09-19T01:29:12;100452.81;;;19.98;96.34
7333;BME280;3707;43.618;25.342;2023-09-19T01:31:47;100461.50;;;20.03;97.14
7333;BME280;3707;43.618;25.342;2023-09-19T01:34:15;100465.25;;;19.90;98.20
7333;BME280;3707;43.618;25.342;2023-09-19T01:36:43;100455.63;;;19.89;98.14
7333;BME280;3707;43.618;25.342;2023-09-19T01:39:11;100446.09;;;19.82;97.93
7333;BME280;3707;43.618;25.342;2023-09-19T01:41:51;100465.06;;;20.01;97.85
7333;BME280;3707;43.618;25.342;2023-09-19T01:44:30;100466.03;;;19.95;98.35
7333;BME280;3707;43.618;25.342;2023-09-19T01:47:04;100464.19;;;20.00;97.27
7333;BME280;3707;43.618;25.342;2023-09-19T01:49:41;100456.38;;;19.96;97.60
7333;BME280;3707;43.618;25.342;2023-09-19T01:52:12;100458.00;;;20.01;99.19
7333;BME280;3707;43.618;25.342;2023-09-19T01:54:46;100459.66;;;20.08;99.58
7333;BME280;3707;43.618;25.342;2023-09-19T01:57:20;100439.03;;;19.84;100.00
7333;BME280;3707;43.618;25.342;2023-09-19T01:59:54;100459.00;;;19.97;100.00
7333;BME280;3707;43.618;25.342;2023-09-19T02:02:25;100445.16;;;19.85;100.00
7333;BME280;3707;43.618;25.342;2023-09-19T02:04:54;100465.25;;;19.90;100.00
7333;BME280;3707;43.618;25.342;2023-09-19T02:07:22;100462.00;;;19.73;100.00
7333;BME280;3707;43.618;25.342;2023-09-19T02:09:49;100460.63;;;19.51;100.00
7333;BME280;3707;43.618;25.342;2023-09-19T02:12:15;100476.31;;;19.57;100.00
7333;BME280;3707;43.618;25.342;2023-09-19T02:14:42;100479.81;;;19.56;100.00
7333;BME280;3707;43.618;25.342;2023-09-19T02:17:09;100487.78;;;19.51;100.00
7333;BME280;3707;43.618;25.342;2023-09-19T02:19:38;100472.16;;;19.38;100.00
7333;BME280;3707;43.618;25.342;2023-09-19T02:22:07;100454.91;;;19.20;100.00
7333;BME280;3707;43.618;25.342;2023-09-19T02:24:36;100453.25;;;19.14;100.00
7333;BME280;3707;43.618;25.342;2023-09-19T02:27:03;100474.91;;;19.30;100.00
7333;BME280;3707;43.618;25.342;2023-09-19T02:29:31;100467.09;;;19.25;100.00
7333;BME280;3707;43.618;25.342;2023-09-19T02:32:00;100475.06;;;19.19;100.00
7333;BME280;3707;43.618;25.342;2023-09-19T02:34:27;100476.16;;;19.05;100.00
7333;BME280;3707;43.618;25.342;2023-09-19T02:36:55;100475.34;;;18.98;100.00
7333;BME280;3707;43.618;25.342;2023-09-19T02:39:22;100480.81;;;18.83;100.00
7333;BME280;3707;43.618;25.342;2023-09-19T02:41:50;100484.31;;;18.82;100.00
7333;BME280;3707;43.618;25.342;2023-09-19T02:44:17;100480.91;;;18.74;100.00
7333;BME280;3707;43.618;25.342;2023-09-19T02:46:45;100475.66;;;18.74;100.00
7333;BME280;3707;43.618;25.342;2023-09-19T02:49:12;100475.78;;;18.63;100.00
7333;BME280;3707;43.618;25.342;2023-09-19T02:51:39;100476.75;;;18.56;100.00
7333;BME280;3707;43.618;25.342;2023-09-19T02:54:08;100482.81;;;18.60;100.00
7333;BME280;3707;43.618;25.342;2023-09-19T02:56:35;100482.06;;;18.46;100.00
7333;BME280;3707;43.618;25.342;2023-09-19T02:59:03;100475.91;;;18.53;100.00
7333;BME280;3707;43.618;25.342;2023-09-19T03:01:31;100471.63;;;18.43;100.00
7333;BME280;3707;43.618;25.342;2023-09-19T03:03:59;100472.53;;;18.39;100.00
7333;BME280;3707;43.618;25.342;2023-09-19T03:06:26;100480.50;;;18.29;100.00
7333;BME280;3707;43.618;25.342;2023-09-19T03:08:53;100478.84;;;18.22;100.00
7333;BME280;3707;43.618;25.342;2023-09-19T03:11:23;100449.88;;;18.28;100.00
7333;BME280;3707;43.618;25.342;2023-09-19T03:13:51;100448.94;;;18.36;100.00
7333;BME280;3707;43.618;25.342;2023-09-19T03:16:18;100465.56;;;18.34;100.00
7333;BME280;3707;43.618;25.342;2023-09-19T03:18:47;100473.50;;;18.28;100.00
7333;BME280;3707;43.618;25.342;2023-09-19T03:21:14;100467.50;;;18.17;100.00
7333;BME280;3707;43.618;25.342;2023-09-19T03:23:41;100469.25;;;18.17;100.00
7333;BME280;3707;43.618;25.342;2023-09-19T03:26:11;100472.78;;;18.14;100.00
7333;BME280;3707;43.618;25.342;2023-09-19T03:28:39;100474.56;;;18.09;100.00
7333;BME280;3707;43.618;25.342;2023-09-19T03:31:08;100467.75;;;17.90;100.00
7333;BME280;3707;43.618;25.342;2023-09-19T03:33:35;100470.41;;;17.84;100.00
7333;BME280;3707;43.618;25.342;2023-09-19T03:36:03;100442.56;;;17.68;100.00
7333;BME280;3707;43.618;25.342;2023-09-19T03:38:31;100452.97;;;17.78;100.00
7333;BME280;3707;43.618;25.342;2023-09-19T03:40:59;100464.31;;;17.82;100.00
7333;BME280;3707;43.618;25.342;2023-09-19T03:43:25;100449.47;;;17.82;100.00
7333;BME280;3707;43.618;25.342;2023-09-19T03:45:54;100409.34;;;17.67;100.00
7333;BME280;3707;43.618;25.342;2023-09-19T03:48:20;100452.94;;;17.83;100.00
7333;BME280;3707;43.618;25.342;2023-09-19T03:50:48;100448.63;;;17.73;100.00
7333;BME280;3707;43.618;25.342;2023-09-19T03:53:15;100433.88;;;17.55;100.00
7333;BME280;3707;43.618;25.342;2023-09-19T03:55:44;100467.81;;;17.81;100.00
7333;BME280;3707;43.618;25.342;2023-09-19T03:58:11;100462.59;;;17.78;100.00
7333;BME280;3707;43.618;25.342;2023-09-19T04:00:38;100472.22;;;17.77;100.00
7333;BME280;3707;43.618;25.342;2023-09-19T04:03:06;100472.19;;;17.83;100.00
7333;BME280;3707;43.618;25.342;2023-09-19T04:05:33;100467.94;;;17.66;100.00
7333;BME280;3707;43.618;25.342;2023-09-19T04:08:00;100474.06;;;17.65;100.00
7333;BME280;3707;43.618;25.342;2023-09-19T04:10:26;100466.25;;;17.62;100.00
7333;BME280;3707;43.618;25.342;2023-09-19T04:12:54;100462.75;;;17.54;100.00
7333;BME280;3707;43.618;25.342;2023-09-19T04:15:22;100472.38;;;17.56;100.00
7333;BME280;3707;43.618;25.342;2023-09-19T04:17:49;100480.22;;;17.61;100.00
7333;BME280;3707;43.618;25.342;2023-09-19T04:20:17;100475.81;;;17.64;100.00
7333;BME280;3707;43.618;25.342;2023-09-19T04:22:45;100425.38;;;17.29;100.00
7333;BME280;3707;43.618;25.342;2023-09-19T04:25:12;100454.94;;;17.48;100.00
7333;BME280;3707;43.618;25.342;2023-09-19T04:27:39;100465.34;;;17.55;100.00
7333;BME280;3707;43.618;25.342;2023-09-19T04:30:07;100474.09;;;17.62;100.00
7333;BME280;3707;43.618;25.342;2023-09-19T04:32:37;100421.06;;;17.17;100.00
7333;BME280;3707;43.618;25.342;2023-09-19T04:35:06;100475.91;;;17.46;100.00
7333;BME280;3707;43.618;25.342;2023-09-19T04:37:36;100475.03;;;17.46;100.00
7333;BME280;3707;43.618;25.342;2023-09-19T04:40:05;100474.06;;;17.68;100.00
7333;BME280;3707;43.618;25.342;2023-09-19T04:42:39;100474.69;;;17.97;100.00
7333;BME280;3707;43.618;25.342;2023-09-19T04:45:07;100470.91;;;18.25;100.00
7333;BME280;3707;43.618;25.342;2023-09-19T04:47:35;100448.31;;;18.09;100.00
7333;BME280;3707;43.618;25.342;2023-09-19T04:50:08;100467.69;;;18.80;100.00
7333;BME280;3707;43.618;25.342;2023-09-19T04:52:41;100475.44;;;18.92;100.00
7333;BME280;3707;43.618;25.342;2023-09-19T04:55:16;100462.34;;;18.89;100.00
7333;BME280;3707;43.618;25.342;2023-09-19T04:57:44;100447.75;;;18.64;100.00
7333;BME280;3707;43.618;25.342;2023-09-19T05:00:13;100462.13;;;18.29;100.00
7333;BME280;3707;43.618;25.342;2023-09-19T05:02:40;100450.88;;;18.18;100.00
7333;BME280;3707;43.618;25.342;2023-09-19T05:05:09;100477.88;;;18.29;100.00
7333;BME280;3707;43.618;25.342;2023-09-19T05:07:36;100373.41;;;17.79;100.00
7333;BME280;3707;43.618;25.342;2023-09-19T05:10:05;100439.53;;;18.15;100.00
7333;BME280;3707;43.618;25.342;2023-09-19T05:12:33;100469.81;;;18.46;100.00
7333;BME280;3707;43.618;25.342;2023-09-19T05:15:01;100476.66;;;18.64;100.00
7333;BME280;3707;43.618;25.342;2023-09-19T05:17:28;100475.69;;;18.71;100.00
7333;BME280;3707;43.618;25.342;2023-09-19T05:19:55;100474.00;;;18.67;100.00
7333;BME280;3707;43.618;25.342;2023-09-19T05:22:23;100444.53;;;18.38;100.00
7333;BME280;3707;43.618;25.342;2023-09-19T05:24:50;100460.38;;;18.28;100.00
7333;BME280;3707;43.618;25.342;2023-09-19T05:27:19;100465.53;;;18.41;100.00
7333;BME280;3707;43.618;25.342;2023-09-19T05:29:47;100450.66;;;18.38;100.00
7333;BME280;3707;43.618;25.342;2023-09-19T05:32:16;100464.53;;;18.54;100.00
7333;BME280;3707;43.618;25.342;2023-09-19T05:34:43;100469.69;;;18.61;100.00
7333;BME280;3707;43.618;25.342;2023-09-19T05:37:10;100463.31;;;18.82;100.00
7333;BME280;3707;43.618;25.342;2023-09-19T05:39:36;100463.13;;;18.96;100.00
7333;BME280;3707;43.618;25.342;2023-09-19T05:42:04;100468.13;;;19.15;100.00
7333;BME280;3707;43.618;25.342;2023-09-19T05:44:32;100475.06;;;19.19;100.00
7333;BME280;3707;43.618;25.342;2023-09-19T05:46:59;100467.59;;;18.88;100.00
7333;BME280;3707;43.618;25.342;2023-09-19T05:49:25;100461.47;;;18.87;100.00
7333;BME280;3707;43.618;25.342;2023-09-19T05:51:53;100445.88;;;18.75;100.00
7333;BME280;3707;43.618;25.342;2023-09-19T05:54:21;100461.28;;;19.02;100.00
7333;BME280;3707;43.618;25.342;2023-09-19T05:56:48;100454.50;;;18.86;100.00
7333;BME280;3707;43.618;25.342;2023-09-19T05:59:18;100451.13;;;18.75;100.00
7333;BME280;3707;43.618;25.342;2023-09-19T06:01:46;100451.97;;;18.78;100.00
7333;BME280;3707;43.618;25.342;2023-09-19T06:04:13;100454.50;;;18.86;100.00
7333;BME280;3707;43.618;25.342;2023-09-19T06:06:40;100448.38;;;18.84;100.00
7333;BME280;3707;43.618;25.342;2023-09-19T06:09:06;100447.63;;;18.73;100.00
7333;BME280;3707;43.618;25.342;2023-09-19T06:11:34;100453.59;;;18.87;100.00
7333;BME280;3707;43.618;25.342;2023-09-19T06:14:01;100461.31;;;18.99;100.00
7333;BME280;3707;43.618;25.342;2023-09-19T06:16:28;100453.28;;;19.11;100.00
7333;BME280;3707;43.618;25.342;2023-09-19T06:18:56;100442.53;;;19.26;100.00
7333;BME280;3707;43.618;25.342;2023-09-19T06:21:25;100452.00;;;19.40;100.00
7333;BME280;3707;43.618;25.342;2023-09-19T06:23:52;100423.00;;;19.44;100.00
7333;BME280;3707;43.618;25.342;2023-09-19T06:26:19;100447.19;;;19.67;100.00
7333;BME280;3707;43.618;25.342;2023-09-19T06:28:46;100441.59;;;19.89;100.00
7333;BME280;3707;43.618;25.342;2023-09-19T06:31:13;100395.63;;;20.06;100.00
7333;BME280;3707;43.618;25.342;2023-09-19T06:33:40;100421.91;;;20.55;100.00
7333;BME280;3707;43.618;25.342;2023-09-19T06:36:09;100434.00;;;21.07;100.00
7333;BME280;3707;43.618;25.342;2023-09-19T06:38:36;100435.72;;;21.11;100.00
7333;BME280;3707;43.618;25.342;2023-09-19T06:41:04;100443.06;;;21.34;100.00
7333;BME280;3707;43.618;25.342;2023-09-19T06:45:59;100442.78;;;21.47;100.00
7333;BME280;3707;43.618;25.342;2023-09-19T06:48:26;100407.97;;;21.32;100.00
7333;BME280;3707;43.618;25.342;2023-09-19T06:50:54;100442.19;;;21.71;100.00
7333;BME280;3707;43.618;25.342;2023-09-19T06:53:23;100443.88;;;21.74;100.00
7333;BME280;3707;43.618;25.342;2023-09-19T06:55:50;100431.84;;;21.25;100.00
7333;BME280;3707;43.618;25.342;2023-09-19T06:58:16;100432.03;;;21.18;100.00
7333;BME280;3707;43.618;25.342;2023-09-19T07:00:44;100428.00;;;21.00;100.00
7333;BME280;3707;43.618;25.342;2023-09-19T07:03:13;100419.38;;;21.32;100.00
7333;BME280;3707;43.618;25.342;2023-09-19T07:05:41;100436.75;;;21.41;100.00
7333;BME280;3707;43.618;25.342;2023-09-19T07:08:10;100428.28;;;21.65;100.00
7333;BME280;3707;43.618;25.342;2023-09-19T07:10:39;100440.97;;;21.83;100.00
7333;BME280;3707;43.618;25.342;2023-09-19T07:13:08;100424.75;;;22.00;100.00
7333;BME280;3707;43.618;25.342;2023-09-19T07:15:36;100425.72;;;21.97;100.00
7333;BME280;3707;43.618;25.342;2023-09-19T07:18:05;100421.50;;;22.22;100.00
7333;BME280;3707;43.618;25.342;2023-09-19T07:20:36;100413.81;;;22.13;100.00
7333;BME280;3707;43.618;25.342;2023-09-19T07:23:04;100411.88;;;22.20;100.00
7333;BME280;3707;43.618;25.342;2023-09-19T07:25:31;100413.38;;;22.30;100.00
7333;BME280;3707;43.618;25.342;2023-09-19T07:27:59;100409.81;;;22.62;99.99
7333;BME280;3707;43.618;25.342;2023-09-19T07:30:27;100376.81;;;22.46;100.00
7333;BME280;3707;43.618;25.342;2023-09-19T07:32:54;100399.28;;;22.60;97.39
7333;BME280;3707;43.618;25.342;2023-09-19T07:35:21;100401.25;;;22.54;97.51
7333;BME280;3707;43.618;25.342;2023-09-19T07:37:48;100404.53;;;22.62;95.24
7333;BME280;3707;43.618;25.342;2023-09-19T07:40:17;100402.16;;;22.84;95.34
7333;BME280;3707;43.618;25.342;2023-09-19T07:42:44;100412.59;;;22.88;90.62
7333;BME280;3707;43.618;25.342;2023-09-19T07:45:13;100364.69;;;22.69;91.95
7333;BME280;3707;43.618;25.342;2023-09-19T07:47:44;100384.91;;;23.00;91.29
7333;BME280;3707;43.618;25.342;2023-09-19T07:50:11;100377.22;;;22.92;90.83
7333;BME280;3707;43.618;25.342;2023-09-19T07:52:37;100357.50;;;23.02;86.82
7333;BME280;3707;43.618;25.342;2023-09-19T07:55:05;100396.28;;;23.30;87.05
7333;BME280;3707;43.618;25.342;2023-09-19T07:57:34;100357.13;;;23.42;85.55
7333;BME280;3707;43.618;25.342;2023-09-19T08:00:01;100393.09;;;23.74;84.96
7333;BME280;3707;43.618;25.342;2023-09-19T08:02:34;100372.72;;;23.76;79.83
7333;BME280;3707;43.618;25.342;2023-09-19T08:05:01;100389.81;;;23.92;79.04
7333;BME280;3707;43.618;25.342;2023-09-19T08:07:32;100378.16;;;24.23;78.12
7333;BME280;3707;43.618;25.342;2023-09-19T08:09:58;100387.22;;;24.40;78.03
7333;BME280;3707;43.618;25.342;2023-09-19T08:12:25;100387.03;;;24.46;72.78
7333;BME280;3707;43.618;25.342;2023-09-19T08:14:52;100383.38;;;24.26;72.83
7333;BME280;3707;43.618;25.342;2023-09-19T08:17:20;100388.69;;;24.26;72.41
7333;BME280;3707;43.618;25.342;2023-09-19T08:19:49;100390.72;;;24.17;72.85
7333;BME280;3707;43.618;25.342;2023-09-19T08:22:18;100383.03;;;24.35;71.87
7333;BME280;3707;43.618;25.342;2023-09-19T08:24:45;100381.13;;;24.38;70.68
7333;BME280;3707;43.618;25.342;2023-09-19T08:27:13;100389.84;;;24.42;69.84
7333;BME280;3707;43.618;25.342;2023-09-19T08:29:40;100385.59;;;24.61;69.25
7333;BME280;3707;43.618;25.342;2023-09-19T08:32:07;100370.47;;;24.63;66.45
7333;BME280;3707;43.618;25.342;2023-09-19T08:34:34;100383.72;;;24.63;67.38
7333;BME280;3707;43.618;25.342;2023-09-19T08:37:05;100377.78;;;24.56;66.30
7333;BME280;3707;43.618;25.342;2023-09-19T08:39:32;100377.38;;;24.44;65.17
7333;BME280;3707;43.618;25.342;2023-09-19T08:42:02;100370.84;;;24.54;66.53
7333;BME280;3707;43.618;25.342;2023-09-19T08:44:30;100360.78;;;24.62;66.08
7333;BME280;3707;43.618;25.342;2023-09-19T08:47:01;100365.50;;;24.77;64.08
7333;BME280;3707;43.618;25.342;2023-09-19T08:49:37;100354.09;;;24.75;63.33
7333;BME280;3707;43.618;25.342;2023-09-19T08:52:12;100362.69;;;24.82;61.96
7333;BME280;3707;43.618;25.342;2023-09-19T08:54:44;100354.47;;;24.89;61.89
7333;BME280;3707;43.618;25.342;2023-09-19T08:57:12;100357.13;;;25.11;60.56
7333;BME280;3707;43.618;25.342;2023-09-19T08:59:47;100356.00;;;25.16;57.74
7333;BME280;3707;43.618;25.342;2023-09-19T09:02:15;100351.25;;;25.25;57.78
7333;BME280;3707;43.618;25.342;2023-09-19T09:04:45;100326.19;;;25.32;56.26
7333;BME280;3707;43.618;25.342;2023-09-19T09:07:13;100335.94;;;25.09;56.22
7333;BME280;3707;43.618;25.342;2023-09-19T09:09:42;100328.78;;;25.11;58.03
7333;BME280;3707;43.618;25.342;2023-09-19T09:12:11;100344.38;;;25.41;57.75
7333;BME280;3707;43.618;25.342;2023-09-19T09:14:39;100352.47;;;25.38;55.57
7333;BME280;3707;43.618;25.342;2023-09-19T09:17:07;100353.06;;;25.44;54.76
7333;BME280;3707;43.618;25.342;2023-09-19T09:19:34;100332.81;;;25.63;52.25
7333;BME280;3707;43.618;25.342;2023-09-19T09:22:08;100324.75;;;26.05;51.08
7333;BME280;3707;43.618;25.342;2023-09-19T09:24:37;100339.25;;;26.39;49.40
7333;BME280;3707;43.618;25.342;2023-09-19T09:27:05;100353.50;;;26.36;49.00
7333;BME280;3707;43.618;25.342;2023-09-19T09:29:42;100348.19;;;26.18;49.76
7333;BME280;3707;43.618;25.342;2023-09-19T09:32:20;100322.63;;;26.13;48.99
7333;BME280;3707;43.618;25.342;2023-09-19T09:34:49;100350.13;;;26.33;48.37
7333;BME280;3707;43.618;25.342;2023-09-19T09:37:17;100347.84;;;26.44;48.00
7333;BME280;3707;43.618;25.342;2023-09-19T09:39:57;100340.25;;;26.55;47.37
7333;BME280;3707;43.618;25.342;2023-09-19T09:42:31;100347.00;;;26.81;47.66
7333;BME280;3707;43.618;25.342;2023-09-19T09:45:16;100350.94;;;26.92;44.84
7333;BME280;3707;43.618;25.342;2023-09-19T09:47:44;100360.78;;;27.26;46.57
7333;BME280;3707;43.618;25.342;2023-09-19T09:50:29;100356.56;;;27.58;46.33
7333;BME280;3707;43.618;25.342;2023-09-19T09:53:04;100348.72;;;27.72;42.96
7333;BME280;3707;43.618;25.342;2023-09-19T09:55:57;100344.16;;;27.91;42.22
7333;BME280;3707;43.618;25.342;2023-09-19T09:58:25;100339.63;;;27.76;40.98
7333;BME280;3707;43.618;25.342;2023-09-19T10:00:55;100349.16;;;27.97;41.90
7333;BME280;3707;43.618;25.342;2023-09-19T10:03:31;100340.25;;;27.81;43.98
7333;BME280;3707;43.618;25.342;2023-09-19T10:06:00;100339.00;;;27.88;44.91
7333;BME280;3707;43.618;25.342;2023-09-19T10:08:36;100340.19;;;28.33;43.96
7333;BME280;3707;43.618;25.342;2023-09-19T10:11:16;100343.09;;;27.78;46.08
7333;BME280;3707;43.618;25.342;2023-09-19T10:13:46;100348.44;;;27.61;44.77
7333;BME280;3707;43.618;25.342;2023-09-19T10:16:13;100339.00;;;27.54;44.46
7333;BME280;3707;43.618;25.342;2023-09-19T10:18:46;100339.22;;;28.01;44.63
7333;BME280;3707;43.618;25.342;2023-09-19T10:21:17;100339.88;;;28.39;43.85
7333;BME280;3707;43.618;25.342;2023-09-19T10:23:48;100333.00;;;28.50;42.90
7333;BME280;3707;43.618;25.342;2023-09-19T10:26:19;100339.78;;;28.25;42.57
7333;BME280;3707;43.618;25.342;2023-09-19T10:28:49;100319.63;;;28.02;43.15
7333;BME280;3707;43.618;25.342;2023-09-19T10:31:19;100338.50;;;27.97;42.87
7333;BME280;3707;43.618;25.342;2023-09-19T10:33:50;100344.47;;;28.20;43.24
7333;BME280;3707;43.618;25.342;2023-09-19T10:36:17;100344.66;;;27.82;43.29
7333;BME280;3707;43.618;25.342;2023-09-19T10:38:45;100311.00;;;27.80;43.03
7333;BME280;3707;43.618;25.342;2023-09-19T10:41:16;100341.84;;;27.85;42.09
7333;BME280;3707;43.618;25.342;2023-09-19T10:43:48;100330.31;;;27.68;41.71
7333;BME280;3707;43.618;25.342;2023-09-19T10:46:15;100333.81;;;28.02;41.75
7333;BME280;3707;43.618;25.342;2023-09-19T10:48:42;100340.09;;;27.84;42.23
7333;BME280;3707;43.618;25.342;2023-09-19T10:51:16;100315.81;;;27.56;42.67
7333;BME280;3707;43.618;25.342;2023-09-19T10:53:50;100333.53;;;27.57;42.17
7333;BME280;3707;43.618;25.342;2023-09-19T10:56:29;100327.97;;;27.79;41.86
7333;BME280;3707;43.618;25.342;2023-09-19T10:59:09;100325.97;;;27.99;40.28
7333;BME280;3707;43.618;25.342;2023-09-19T11:01:42;100335.53;;;28.21;41.12
7333;BME280;3707;43.618;25.342;2023-09-19T11:04:26;100323.34;;;28.32;39.43
7333;BME280;3707;43.618;25.342;2023-09-19T11:07:04;100321.22;;;28.39;39.83
7333;BME280;3707;43.618;25.342;2023-09-19T11:09:44;100311.47;;;28.38;39.60
7333;BME280;3707;43.618;25.342;2023-09-19T11:12:12;100321.53;;;28.81;39.40
7333;BME280;3707;43.618;25.342;2023-09-19T11:14:42;100320.03;;;28.60;38.07
7333;BME280;3707;43.618;25.342;2023-09-19T11:17:40;100317.22;;;28.94;38.10
7333;BME280;3707;43.618;25.342;2023-09-19T11:20:22;100321.41;;;29.30;37.95
7333;BME280;3707;43.618;25.342;2023-09-19T11:23:21;100314.28;;;28.83;37.46
7333;BME280;3707;43.618;25.342;2023-09-19T11:25:53;100313.00;;;28.90;38.82
7333;BME280;3707;43.618;25.342;2023-09-19T11:28:33;100297.59;;;28.95;37.31
7333;BME280;3707;43.618;25.342;2023-09-19T11:34:43;100305.97;;;29.19;36.28
7333;BME280;3707;43.618;25.342;2023-09-19T11:40:33;100302.41;;;28.73;36.98
7333;BME280;3707;43.618;25.342;2023-09-19T11:43:30;100301.19;;;28.63;37.32
7333;BME280;3707;43.618;25.342;2023-09-19T11:46:07;100295.47;;;28.38;37.68
7333;BME280;3707;43.618;25.342;2023-09-19T11:48:40;100298.22;;;28.36;38.55
7333;BME280;3707;43.618;25.342;2023-09-19T11:51:17;100292.88;;;28.36;38.95
7333;BME280;3707;43.618;25.342;2023-09-19T11:53:56;100272.97;;;27.93;39.30
7333;BME280;3707;43.618;25.342;2023-09-19T11:56:26;100288.28;;;28.23;39.30
7333;BME280;3707;43.618;25.342;2023-09-19T11:58:54;100292.75;;;27.89;39.00
7333;BME280;3707;43.618;25.342;2023-09-19T12:01:23;100258.28;;;27.52;39.81
7333;BME280;3707;43.618;25.342;2023-09-19T12:03:56;100287.09;;;27.44;40.51
7333;BME280;3707;43.618;25.342;2023-09-19T12:06:25;100282.94;;;27.38;40.07
7333;BME280;3707;43.618;25.342;2023-09-19T12:08:52;100191.81;;;26.80;39.83
7333;BME280;3707;43.618;25.342;2023-09-19T12:11:21;100285.22;;;27.29;39.99
7333;BME280;3707;43.618;25.342;2023-09-19T12:13:49;100256.38;;;27.02;40.62
7333;BME280;3707;43.618;25.342;2023-09-19T12:16:19;100259.69;;;27.07;40.58
7333;BME280;3707;43.618;25.342;2023-09-19T12:18:48;100260.31;;;27.30;41.28
7333;BME280;3707;43.618;25.342;2023-09-19T12:21:25;100271.63;;;27.52;41.93
7333;BME280;3707;43.618;25.342;2023-09-19T12:24:06;100264.56;;;27.51;40.62
7333;BME280;3707;43.618;25.342;2023-09-19T12:26:40;100250.06;;;27.39;40.32
7333;BME280;3707;43.618;25.342;2023-09-19T12:29:16;100264.22;;;27.40;39.79
7333;BME280;3707;43.618;25.342;2023-09-19T12:31:51;100259.94;;;27.54;39.66
7333;BME280;3707;43.618;25.342;2023-09-19T12:34:21;100258.78;;;27.60;39.30
7333;BME280;3707;43.618;25.342;2023-09-19T12:37:03;100240.53;;;27.85;39.04
7333;BME280;3707;43.618;25.342;2023-09-19T12:39:30;100258.44;;;28.16;38.13
7333;BME280;3707;43.618;25.342;2023-09-19T12:41:57;100254.78;;;28.50;37.69
7333;BME280;3707;43.618;25.342;2023-09-19T12:44:24;100252.97;;;28.66;37.79
7333;BME280;3707;43.618;25.342;2023-09-19T12:46:51;100234.13;;;28.69;37.30
7333;BME280;3707;43.618;25.342;2023-09-19T12:49:20;100211.84;;;28.39;37.11
7333;BME280;3707;43.618;25.342;2023-09-19T12:51:50;100246.91;;;28.47;37.23
7333;BME280;3707;43.618;25.342;2023-09-19T12:54:21;100249.84;;;28.27;36.59
7333;BME280;3707;43.618;25.342;2023-09-19T12:56:50;100246.59;;;28.04;36.45
7333;BME280;3707;43.618;25.342;2023-09-19T12:59:29;100237.66;;;28.05;36.94
7333;BME280;3707;43.618;25.342;2023-09-19T13:02:03;100248.81;;;28.14;37.06
7333;BME280;3707;43.618;25.342;2023-09-19T13:04:31;100239.19;;;28.27;36.42
7333;BME280;3707;43.618;25.342;2023-09-19T13:07:01;100242.63;;;28.44;36.50
7333;BME280;3707;43.618;25.342;2023-09-19T13:09:28;100240.91;;;28.28;36.48
7333;BME280;3707;43.618;25.342;2023-09-19T13:11:59;100239.69;;;28.18;36.14
7333;BME280;3707;43.618;25.342;2023-09-19T13:14:27;100239.06;;;28.13;36.05
7333;BME280;3707;43.618;25.342;2023-09-19T13:16:59;100236.06;;;28.19;36.14
7333;BME280;3707;43.618;25.342;2023-09-19T13:19:40;100217.75;;;28.44;35.40